Terminal Aerodrome Forecast
Issued by NWS Northern Indiana

Home | Current Version | Previous Version | Text Only | Print | Product List | Glossary Off
Versions: 1 2 3 4 5 6 7 8 9 10 11 12 13 14

000
FTUS43 KIWX 260522
TAFFWA
TAF
KFWA 260522Z 2606/2706 22007KT P6SM SCT070
     FM261000 18007KT 4SM BR SCT015 BKN070
     FM261300 21010KT P6SM SCT040=

USA.gov is the U.S. government's official web portal to all federal, state and local government web resources and services.